Flight Track Log - Related Links

Times and Time Zones

All times are in EDT time to prevent confusion due to time zone crossing. See the N618JB flight status page for this flight to view local times or setup timezone preferences in your user account.

Time Position Orientation Groundspeed Altitude Reporting Facility
EDT Latitude Longitude Course Direction KTS MPH feet Rate Location/Type
Mon 07:12:55 AM 26.7114 -81.7258 North 292 336 6,600  Level Miami Center
Mon 07:13:00 AM 28.1738 -81.6469 36° Northeast  Level FlightAware Approximate
Mon 07:13:55 AM 26.7925 -81.7339 355° North 292 336 9,600  Level Miami Center
Mon 07:14:00 AM 28.2584 -81.5763 36° Northeast  Level FlightAware Approximate
Mon 07:14:55 AM 26.8803 -81.7283 North 292 336 10,800  Level Miami Center
Mon 07:15:00 AM 28.3430 -81.5058 36° Northeast  Level FlightAware Approximate
Mon 07:15:55 AM 26.9833 -81.7047 12° North 324 373 12,700  Level Miami Center
Mon 07:16:00 AM 28.4223 -81.4277 41° Northeast  Level FlightAware Approximate
Mon 07:16:55 AM 27.0886 -81.6786 12° North 362 417 15,000  Level Miami Center
Mon 07:17:00 AM 28.5062 -81.3559 36° Northeast  Level FlightAware Approximate
Mon 07:17:55 AM 27.1958 -81.6528 12° North 385 443 17,100  Level Miami Center
Mon 07:18:00 AM 28.6047 -81.3333 North  Level FlightAware Approximate
Mon 07:18:55 AM 27.3181 -81.6253 11° North 399 459 19,600  Level Miami Center
Mon 07:19:55 AM 27.4189 -81.5989 13° North 404 465 21,400 1,650 Climbing Miami Center
Mon 07:20:55 AM 27.5344 -81.5756 10° North 419 482 22,900 1,550 Climbing Miami Center
Mon 07:21:55 AM 27.6650 -81.5436 12° North 424 488 24,500 1,350 Climbing Miami Center
Mon 07:22:55 AM 27.7864 -81.5319 North 429 494 25,600 1,100 Climbing Miami Center
Mon 07:23:55 AM 27.8969 -81.5342 359° North 434 499 26,700 1,050 Climbing Miami Center
Mon 07:24:55 AM 28.0264 -81.5350 360° North 439 505 27,700 950 Climbing Miami Center
Mon 07:25:55 AM 28.1558 -81.5308 North 457 526 28,600 950 Climbing Miami Center
Mon 07:26:55 AM 28.2850 -81.5317 360° North 462 532 29,600 1,050 Climbing Miami Center
Mon 07:27:55 AM 28.4186 -81.5300 North 462 532 30,700 1,071 Climbing Miami Center
Mon 07:28:19 AM 28.4767 -81.5300 360° North 476 548 31,100 1,071 Climbing Jacksonville Center
Mon 07:29:19 AM 28.6081 -81.5306 360° North 476 548 32,200 1,281 Climbing Jacksonville Center
Mon 07:29:48 AM 28.6789 -81.5272 North 473 544 33,000 1,500 Climbing Jacksonville Center
Mon 07:30:19 AM 28.7375 -81.5264 North 469 540 33,700 1,418 Climbing Jacksonville Center
Mon 07:30:43 AM 28.7981 -81.5281 359° North 469 540 34,300 1,300 Climbing Jacksonville Center
Mon 07:31:19 AM 28.8667 -81.5247 North 469 540 35,000 438 Climbing Jacksonville Center
Mon 07:32:19 AM 28.9942 -81.5228 North 458 527 35,000  Level Jacksonville Center
Mon 07:33:19 AM 29.1194 -81.5211 North 458 527 35,000  Level Jacksonville Center
Mon 07:34:19 AM 29.2550 -81.5239 359° North 452 520 35,000  Level Jacksonville Center
Mon 07:34:34 AM 29.2842 -81.5236 360° North 455 524 35,000  Level Jacksonville Center
Mon 07:35:19 AM 29.3844 -81.5244 360° North 447 514 35,000  Level Jacksonville Center
Mon 07:35:35 AM 29.4094 -81.5219 North 452 520 35,000  Level Jacksonville Center
Mon 07:36:19 AM 29.5097 -81.5206 North 447 514 35,000  Level Jacksonville Center
Mon 07:37:19 AM 29.6369 -81.5067 North 447 514 35,000 50 Level Jacksonville Center
Mon 07:38:19 AM 29.7636 -81.4547 20° North 453 521 35,100  Climbing Jacksonville Center
Mon 07:39:19 AM 29.8883 -81.4025 20° North 464 534 35,000 -50 Descending Jacksonville Center
Mon 07:40:19 AM 30.0150 -81.3503 20° North 470 541 35,000 50 Level Jacksonville Center
Mon 07:41:19 AM 30.1419 -81.3194 12° North 470 541 35,100 100 Climbing Jacksonville Center
Mon 07:42:19 AM 30.2711 -81.3053 North 465 535 35,200 450 Climbing Jacksonville Center
Mon 07:43:19 AM 30.3983 -81.2886 North 465 535 36,000 850 Climbing Jacksonville Center
Mon 07:44:19 AM 30.5297 -81.2672 North 465 535 36,900 500 Climbing Jacksonville Center
Mon 07:45:19 AM 30.6519 -81.2047 24° Northeast 459 528 37,000 50 Climbing Jacksonville Center
Mon 07:46:19 AM 30.7722 -81.1397 25° Northeast 464 534 37,000  Level Jacksonville Center
Mon 07:47:19 AM 30.8925 -81.0817 22° Northeast 469 540 37,000  Level Jacksonville Center
Mon 07:48:19 AM 31.0147 -81.0189 24° Northeast 474 545 37,000  Level Jacksonville Center
Mon 07:49:19 AM 31.1267 -80.9608 24° Northeast 479 551 37,000 50 Level Jacksonville Center
Mon 07:50:19 AM 31.2489 -80.8975 24° Northeast 479 551 37,100 50 Climbing Jacksonville Center
Mon 07:51:19 AM 31.3731 -80.8317 24° Northeast 474 545 37,100 -50 Level Jacksonville Center
Mon 07:52:19 AM 31.4933 -80.7706 23° Northeast 474 545 37,000 -50 Descending Jacksonville Center
Mon 07:53:19 AM 31.6297 -80.7014 23° Northeast 474 545 37,000  Level Jacksonville Center
Mon 07:54:19 AM 31.7417 -80.6450 23° Northeast 479 551 37,000  Level Jacksonville Center
Mon 07:55:19 AM 31.8781 -80.5733 24° Northeast 479 551 37,000  Level Jacksonville Center
Mon 07:56:19 AM 31.9897 -80.5142 24° Northeast 478 550 37,000 50 Level Jacksonville Center
Mon 07:57:19 AM 32.1242 -80.4469 23° Northeast 478 550 37,100  Climbing Jacksonville Center
Mon 07:58:19 AM 32.2336 -80.3900 24° Northeast 478 550 37,000 -50 Descending Jacksonville Center
Mon 07:59:19 AM 32.3556 -80.3228 25° Northeast 473 544 37,000  Level Jacksonville Center
Mon 08:00:19 AM 32.4772 -80.2575 24° Northeast 473 544 37,000  Level Jacksonville Center
Mon 08:01:19 AM 32.6033 -80.1922 24° Northeast 473 544 37,000  Level Jacksonville Center
Mon 08:02:19 AM 32.7231 -80.1269 25° Northeast 473 544 37,000  Level Jacksonville Center
Mon 08:03:19 AM 32.8314 -80.0322 36° Northeast 467 537 37,000  Level Jacksonville Center
Mon 08:04:19 AM 32.9356 -79.9300 39° Northeast 475 547 37,000  Level Jacksonville Center
Mon 08:05:19 AM 33.0419 -79.8347 37° Northeast 480 552 37,000  Level Jacksonville Center
Mon 08:06:19 AM 33.1500 -79.7319 39° Northeast 485 558 37,000  Level Jacksonville Center
Mon 08:07:19 AM 33.2558 -79.6311 39° Northeast 485 558 37,000  Level Jacksonville Center
Mon 08:08:19 AM 33.3639 -79.5278 39° Northeast 485 558 37,000  Level Jacksonville Center
Mon 08:09:19 AM 33.4697 -79.4292 38° Northeast 480 552 37,000  Level Jacksonville Center
Mon 08:10:19 AM 33.5753 -79.3278 39° Northeast 485 558 37,000  Level Jacksonville Center
Mon 08:11:19 AM 33.6808 -79.2261 39° Northeast 485 558 37,000  Level Jacksonville Center
Mon 08:12:19 AM 33.7803 -79.1322 38° Northeast 471 542 37,000  Level Jacksonville Center
Mon 08:14:14 AM 33.9875 -78.9328 39° Northeast 473 544 37,000  Level Washington Center
Mon 08:15:14 AM 34.0925 -78.8317 39° Northeast 473 544 37,000  Level Washington Center
Mon 08:16:14 AM 34.1997 -78.7281 39° Northeast 480 552 37,000  Level Washington Center
Mon 08:17:14 AM 34.3044 -78.6264 39° Northeast 480 552 37,000  Level Washington Center
Mon 08:18:15 AM 34.4114 -78.5222 39° Northeast 480 552 37,000  Level Washington Center
Mon 08:19:14 AM 34.5161 -78.4175 39° Northeast 480 552 37,000  Level Washington Center
Mon 08:20:14 AM 34.6208 -78.3150 39° Northeast 480 552 37,000  Level Washington Center
Mon 08:21:15 AM 34.7253 -78.2075 40° Northeast 480 552 37,000  Level Washington Center
Mon 08:22:15 AM 34.8106 -78.1267 38° Northeast 480 552 37,000  Level Washington Center
Mon 08:23:14 AM 34.9236 -78.0061 41° Northeast 480 552 37,000  Level Washington Center
Mon 08:24:15 AM 35.0428 -77.8881 39° Northeast 488 562 37,000  Level Washington Center
Mon 08:25:14 AM 35.1469 -77.7817 40° Northeast 494 568 37,000 50 Level Washington Center
Mon 08:26:14 AM 35.2575 -77.6728 39° Northeast 500 575 37,100 50 Climbing Washington Center
Mon 08:27:14 AM 35.3658 -77.5608 40° Northeast 500 575 37,100 -50 Level Washington Center
Mon 08:28:15 AM 35.4800 -77.4617 35° Northeast 500 575 37,000 -50 Descending Washington Center
Mon 08:29:14 AM 35.5942 -77.3622 35° Northeast 500 575 37,000  Level Washington Center
Mon 08:30:15 AM 35.7083 -77.2675 34° Northeast 494 568 37,000  Level Washington Center
Mon 08:31:14 AM 35.8181 -77.1647 37° Northeast 494 568 37,000  Level Washington Center
Mon 08:32:14 AM 35.9319 -77.0772 32° Northeast 494 568 37,000  Level Washington Center
Mon 08:33:15 AM 36.0478 -76.9947 30° Northeast 482 555 37,000  Level Washington Center
Mon 08:34:15 AM 36.1633 -76.9119 30° Northeast 482 555 37,000  Level Washington Center
Mon 08:35:14 AM 36.2811 -76.8236 31° Northeast 482 555 37,000  Level Washington Center
Mon 08:36:14 AM 36.3967 -76.7378 31° Northeast 482 555 37,000  Level Washington Center
Mon 08:37:14 AM 36.5122 -76.6514 31° Northeast 477 549 37,000  Level Washington Center
Mon 08:38:14 AM 36.6300 -76.5625 31° Northeast 477 549 37,000  Level Washington Center
Mon 08:39:15 AM 36.7433 -76.4733 32° Northeast 477 549 37,000 50 Level Washington Center
Mon 08:40:14 AM 36.8606 -76.3864 31° Northeast 477 549 37,100  Climbing Washington Center
Mon 08:41:14 AM 36.9781 -76.2992 31° Northeast 477 549 37,000 -50 Descending Washington Center
Mon 08:42:15 AM 37.0953 -76.2064 32° Northeast 482 555 37,000  Level Washington Center
Mon 08:43:15 AM 37.1958 -76.1367 29° Northeast 488 562 37,000  Level Washington Center
Mon 08:44:14 AM 37.3233 -76.0383 32° Northeast 493 567 37,000  Level Washington Center
Mon 08:45:15 AM 37.4406 -75.9475 32° Northeast 493 567 37,000  Level Washington Center
Mon 08:46:14 AM 37.5617 -75.8564 31° Northeast 493 567 37,000  Level Washington Center
Mon 08:47:15 AM 37.6786 -75.7625 32° Northeast 493 567 37,000  Level Washington Center
Mon 08:48:15 AM 37.7978 -75.6733 31° Northeast 493 567 37,000  Level Washington Center
Mon 08:49:14 AM 37.9167 -75.5811 31° Northeast 493 567 37,000  Level Washington Center
Mon 08:50:14 AM 38.0375 -75.4889 31° Northeast 493 567 37,000  Level Washington Center
Mon 08:51:15 AM 38.1606 -75.3989 30° Northeast 493 567 37,000  Level Washington Center
Mon 08:52:15 AM 38.2875 -75.3219 25° Northeast 493 567 37,000  Level Washington Center
Mon 08:53:15 AM 38.4269 -75.2339 26° Northeast 493 567 37,000 -300 Level Washington Center
Mon 08:54:15 AM 38.5517 -75.1564 26° Northeast 493 567 36,400 -800 Descending Washington Center
Mon 08:55:15 AM 38.6767 -75.0706 28° Northeast 493 567 35,400 -1,050 Descending Washington Center
Mon 08:56:15 AM 38.8075 -74.9869 26° Northeast 505 581 34,300 -1,850 Descending Washington Center
Mon 08:57:15 AM 38.9383 -74.9058 26° Northeast 513 590 31,700 -2,420 Descending Washington Center
Mon 08:58:14 AM 39.0692 -74.8164 28° Northeast 520 598 29,500 -2,053 Descending Washington Center
Mon 08:59:47 AM 39.2217 -74.6675 37° Northeast 505 581 26,500 -2,039 Descending New York Center
Mon 09:00:47 AM 39.3231 -74.5575 40° Northeast 486 559 24,300 -2,066 Descending New York Center
Mon 09:01:49 AM 39.4203 -74.4553 39° Northeast 460 529 22,300 -2,269 Descending New York Center
Mon 09:02:46 AM 39.5111 -74.3497 42° Northeast 442 509 19,800 -2,205 Descending New York Center
Mon 09:03:46 AM 39.6081 -74.2442 40° Northeast 448 516 18,000 -1,140 Descending New York Center
Mon 09:04:47 AM 39.6964 -74.1486 40° Northeast 413 475 17,500 -1,328 Descending New York Center
Mon 09:05:48 AM 39.7739 -74.0606 41° Northeast 361 415 15,300 -1,983 Descending New York Center
Mon 09:06:48 AM 39.8425 -73.9908 38° Northeast 350 403 13,500 -1,750 Descending New York Center
Mon 09:07:48 AM 39.9233 -73.9322 29° Northeast 345 397 11,800 -1,220 Descending New York Center
Mon 09:08:46 AM 40.0061 -73.8711 29° Northeast 309 356 11,100 -600 Descending New York Center
Mon 09:09:48 AM 40.0742 -73.8253 27° Northeast 287 330 10,600 -1,180 Descending New York Center
Mon 09:10:48 AM 40.1422 -73.7711 31° Northeast 277 319 8,700 -2,321 Descending New York Center
Mon 09:11:34 AM 40.2000 -73.7833 351° North 264 304 6,500 -1,755 Descending New York TRACON
Mon 09:12:34 AM 40.2667 -73.8167 339° North 233 268 5,600 -1,000 Descending New York TRACON
Mon 09:13:34 AM 40.3167 -73.8333 346° North 225 259 4,500 -1,033 Descending New York TRACON
Mon 09:15:34 AM 40.4500 -73.8833 344° North 239 275 2,500 -867 Descending New York TRACON
Mon 09:16:34 AM 40.5000 -73.8667 14° North 213 245 1,900 -300 Descending New York TRACON
Mon 09:17:34 AM 40.5500 -73.8333 27° Northeast 202 232 1,900 -400 Level New York TRACON
Mon 09:18:34 AM 40.5833 -73.8000 37° Northeast 156 180 1,100 -895 Descending New York TRACON
Mon 09:19:28 AM 40.6167 -73.7833 21° North 133 153 200 3,094 Descending New York TRACON
Mon 09:21:46 AM 40.7083 -73.7167 29° Northeast 160 184 11,000 4,696 Climbing New York Center

Login

Don't have an account? Register now (free) for customized features, flight alerts, and more!